»·PEaware :: N5518G KTOA-KVNY

N5518G :: KTOA-KVNY

FLIGHT INFORMATION

Flight Status: Arrived
Operator: Privately registered:
United States
More flights under this callsign
Pilot: Taylor N. (13554)
Aircraft: CESSNA 172 SKYHAWK
(C172)
More flights by this aircraft type
Origin: KTOA Zamperini
United States
Destination: KVNY Van Nuys
United States
More flights between these airports :: More routes between these airports
Route: LAX170 LIMBO V64 SMO125 SMO SMO317 CANOG
File this flight plan on PilotEdge
Remarks: Scenario 1
Altitude:
(Current/Filed)
4,000ft
Speed:
(Current/Filed)
110kts
Departed: 17-Dec-19 06:20 PM
Arrived: 17-Dec-19 07:28 PM
Distance/Time
Traveled:
26nm/1:08
Distance/Time
To Go:
Arrived

Flight Plot

Page will automatically refresh every two minutes.

Flight plan parsing failed; only flown route is shown


Map Options




Map Legend


Flown Route
Filed Route
Departure Airport
Arrival Airport
Navaid (VOR, NDB)
Fix

Horizontal Profiles

Position Reports

Time Latitude Longitude Heading Altitude Ground
Speed
17-Dec-19 17:46 33.801601 -118.341420 218 106ft 0kts
17-Dec-19 17:47 33.801601 -118.341420 218 106ft 0kts
17-Dec-19 17:48 33.801601 -118.341420 218 106ft 0kts
17-Dec-19 17:49 33.801601 -118.341420 218 106ft 0kts
17-Dec-19 17:50 33.801601 -118.341420 218 106ft 0kts
17-Dec-19 17:51 33.801601 -118.341420 218 106ft 0kts
17-Dec-19 17:52 33.801601 -118.341420 218 106ft 0kts
17-Dec-19 17:53 33.801601 -118.341420 218 106ft 0kts
17-Dec-19 17:54 33.801601 -118.341420 218 106ft 0kts
17-Dec-19 17:55 33.801601 -118.341420 218 106ft 0kts
17-Dec-19 17:56 33.801601 -118.341420 218 106ft 0kts
17-Dec-19 17:57 33.801601 -118.341420 218 106ft 0kts
17-Dec-19 17:58 33.801601 -118.341420 218 106ft 0kts
17-Dec-19 17:59 33.801601 -118.341420 218 106ft 0kts
17-Dec-19 18:00 33.801601 -118.341420 218 106ft 0kts
17-Dec-19 18:01 33.801601 -118.341420 218 106ft 0kts
17-Dec-19 18:02 33.801601 -118.341420 218 106ft 0kts
17-Dec-19 18:03 33.801601 -118.341420 218 106ft 0kts
17-Dec-19 18:04 33.801601 -118.341420 218 106ft 0kts
17-Dec-19 18:05 33.801601 -118.341420 218 106ft 0kts
17-Dec-19 18:06 33.801601 -118.341420 218 106ft 0kts
17-Dec-19 18:07 33.801601 -118.341420 218 106ft 0kts
17-Dec-19 18:08 33.801601 -118.341420 218 106ft 0kts
17-Dec-19 18:09 33.801601 -118.341420 218 106ft 0kts
17-Dec-19 18:10 33.801505 -118.341480 186 106ft 0kts
17-Dec-19 18:11 33.800874 -118.339741 36 106ft 3kts
17-Dec-19 18:12 33.799982 -118.337459 129 106ft 14kts
17-Dec-19 18:13 33.798196 -118.334121 35 106ft 7kts
17-Dec-19 18:14 33.798606 -118.333354 63 106ft 0kts
17-Dec-19 18:15 33.798606 -118.333354 63 106ft 0kts
17-Dec-19 18:16 33.798606 -118.333354 63 106ft 0kts
17-Dec-19 18:17 33.798973 -118.333203 1 106ft 0kts
17-Dec-19 18:18 33.798985 -118.333203 0 106ft 0kts
17-Dec-19 18:19 33.804945 -118.341208 307 299ft 83kts
17-Dec-19 18:20 33.818884 -118.365238 307 1332ft 89kts
17-Dec-19 18:21 33.832956 -118.390010 307 2310ft 94kts
17-Dec-19 18:22 33.848101 -118.416760 307 3041ft 116kts
17-Dec-19 18:23 33.848785 -118.452187 191 3034ft 125kts
17-Dec-19 18:24 33.819687 -118.450426 165 4037ft 91kts
17-Dec-19 18:25 33.789971 -118.446139 164 4047ft 138kts
17-Dec-19 18:26 33.755120 -118.441452 131 3998ft 107kts
17-Dec-19 18:27 33.757605 -118.406837 72 4030ft 112kts
17-Dec-19 18:28 33.767643 -118.372015 70 4028ft 109kts
17-Dec-19 18:29 33.777530 -118.337189 79 4028ft 110kts
17-Dec-19 18:30 33.777272 -118.300447 94 4028ft 109kts
17-Dec-19 18:31 33.773855 -118.264062 94 4026ft 108kts
17-Dec-19 18:32 33.790575 -118.246586 340 4031ft 125kts
17-Dec-19 18:33 33.821865 -118.266229 320 4026ft 130kts
17-Dec-19 18:34 33.849167 -118.295667 322 4028ft 130kts
17-Dec-19 18:35 33.876963 -118.324551 322 4029ft 131kts
17-Dec-19 18:36 33.905068 -118.353317 322 4029ft 132kts
17-Dec-19 18:37 33.933565 -118.382320 323 4030ft 132kts
17-Dec-19 18:38 33.961705 -118.410925 324 4031ft 129kts
17-Dec-19 18:39 33.989019 -118.438541 325 4021ft 129kts
17-Dec-19 18:40 34.016760 -118.465851 326 4021ft 127kts
17-Dec-19 18:41 34.043890 -118.492760 328 4022ft 124kts
17-Dec-19 18:42 34.071415 -118.517371 332 4025ft 121kts
17-Dec-19 18:43 34.099737 -118.538876 333 4027ft 119kts
17-Dec-19 18:44 34.128184 -118.555709 355 4031ft 114kts
17-Dec-19 18:45 34.159277 -118.565442 346 4030ft 116kts
17-Dec-19 18:46 34.189350 -118.579761 342 4029ft 117kts
17-Dec-19 18:47 34.218098 -118.592034 349 4625ft 100kts
17-Dec-19 18:48 34.246181 -118.603657 349 5032ft 117kts
17-Dec-19 18:49 34.277515 -118.616832 349 5027ft 119kts
17-Dec-19 18:50 34.309317 -118.623468 359 5028ft 115kts
17-Dec-19 18:51 34.341088 -118.629787 359 5028ft 116kts
17-Dec-19 18:52 34.372926 -118.636261 359 5028ft 116kts
17-Dec-19 18:53 34.404859 -118.642866 358 5027ft 116kts
17-Dec-19 18:54 34.436827 -118.649521 358 5030ft 116kts
17-Dec-19 18:55 34.458800 -118.638784 87 5031ft 101kts
17-Dec-19 18:56 34.457147 -118.604255 88 5032ft 103kts
17-Dec-19 18:57 34.455009 -118.568950 88 5035ft 106kts
17-Dec-19 18:58 34.448293 -118.534470 139 5036ft 120kts
17-Dec-19 18:59 34.420129 -118.512469 138 5038ft 120kts
17-Dec-19 19:00 34.384983 -118.505969 168 4840ft 135kts
17-Dec-19 19:01 34.346815 -118.502611 170 4239ft 139kts
17-Dec-19 19:02 34.307810 -118.499323 171 3216ft 134kts
17-Dec-19 19:03 34.273473 -118.496108 171 2329ft 114kts
17-Dec-19 19:04 34.243588 -118.493754 172 1626ft 99kts
17-Dec-19 19:05 34.215709 -118.490935 172 1182ft 113kts
17-Dec-19 19:06 34.184953 -118.484995 154 2076ft 114kts
17-Dec-19 19:07 34.155975 -118.473506 152 3034ft 106kts
17-Dec-19 19:08 34.127261 -118.464981 159 3949ft 106kts
17-Dec-19 19:09 34.097776 -118.457417 160 4648ft 120kts
17-Dec-19 19:10 34.062697 -118.455149 197 4613ft 131kts
17-Dec-19 19:11 34.057212 -118.495450 278 4623ft 131kts
17-Dec-19 19:12 34.061532 -118.539591 278 4624ft 132kts
17-Dec-19 19:13 34.065830 -118.583722 278 4625ft 132kts
17-Dec-19 19:14 34.077471 -118.623680 319 4625ft 127kts
17-Dec-19 19:15 34.101825 -118.655077 318 4623ft 129kts
17-Dec-19 19:16 34.126408 -118.687137 319 4622ft 130kts
17-Dec-19 19:17 34.151469 -118.720003 319 4472ft 139kts
17-Dec-19 19:18 34.178991 -118.743449 37 4013ft 98kts
17-Dec-19 19:19 34.193038 -118.721029 59 4030ft 89kts
17-Dec-19 19:20 34.201741 -118.691315 86 4021ft 100kts
17-Dec-19 19:21 34.201537 -118.654734 87 3504ft 115kts
17-Dec-19 19:22 34.201063 -118.617908 84 3423ft 104kts
17-Dec-19 19:23 34.201087 -118.581096 85 3103ft 121kts
17-Dec-19 19:24 34.199992 -118.542090 87 2484ft 113kts
17-Dec-19 19:26 34.198867 -118.502261 89 1538ft 115kts
17-Dec-19 19:27 34.210639 -118.489193 359 814ft 53kts
17-Dec-19 19:28 34.215264 -118.490151 268 805ft 0kts
17-Dec-19 19:29 34.215212 -118.491951 292 805ft 10kts
17-Dec-19 19:30 34.216964 -118.494036 280 805ft 10kts
17-Dec-19 19:31 34.216914 -118.497116 224 805ft 8kts
17-Dec-19 19:32 34.215360 -118.499059 243 805ft 6kts
17-Dec-19 19:33 34.216067 -118.498905 43 805ft 9kts
17-Dec-19 19:34 34.216344 -118.498654 1 805ft 0kts

Navigation Log

Ident Type
Flight plan parsing failed, navigation log unavailable